Terminal Aerodrome Forecast
Issued by NWS

Home | Current Version | Previous Version | Graphics & Text | Print | Product List | Glossary On
Versions: 1 2 3 4 5 6 7 8 9 10 11 12 13 14 15 16 17 18 19
251
FTUS42 KMHX 240537
TAFISO
TAF
KISO 240537Z 2406/2506 10015KT 6SM RA OVC025
     FM240800 10015G18KT 4SM +RA OVC012 WS020/12040KT
     FM241200 10015G26KT 2SM +RA VCTS OVC010CB WS020/12045KT
      TEMPO 2412/2415 BKN008CB
     FM241800 13014G24KT 6SM SHRA VCTS BKN015CB
     FM250100 15009KT P6SM BKN250
      AMD LTD TO CLD VIS AND WIND=

USA.gov is the U.S. government's official web portal to all federal, state and local government web resources and services.